Latest Coastal Weather Observations for Cape Naturaliste

IDW60701

Issued at 12:22 am WST Tuesday 31 May 2016 (issued every 10 minutes, with the page automatically refreshed every 10 minutes)

About coastal observations | Map of coastal stations | Coastal observations for WA | Marine services | Other Formats
Station Details ID: 009519 Name: CAPE NATURALISTE Lat: -33.54 Lon: 115.02 Height: 109.0 m
Data from the previous 72 hours. | See also: Recent months at Cape Naturaliste
Date/Time
WST
Temp

°C
Wind Pressure Rain
since 9am
mm
Weather Cloud Vis
km
Sea
Height
m
Swell
Dir
 
Speed
knots
Gust
knots
hPa Trend Height
m
Period
s
Dir
31/12:00am 14.5 NE 11 14 1019.0 - 0.2 - - - - - - -
 
Date/Time
WST
Temp

°C
Wind Pressure Rain
since 9am
mm
Weather Cloud Vis
km
Sea
Height
m
Swell
Dir
 
Speed
knots
Gust
knots
hPa Trend Height
m
Period
s
Dir
30/11:30pm 14.5 NE 11 13 1019.0 - 0.2 - - - - - - -
30/11:00pm 14.6 NE 11 14 1019.1 - 0.2 - - - - - - -
30/10:30pm 14.5 NE 10 13 1019.2 - 0.2 - - - - - - -
30/10:00pm 14.4 NE 10 13 1019.1 - 0.2 - - - - - - -
30/09:30pm 14.3 ENE 10 13 1019.2 - 0.2 - - - - - - -
30/09:00pm 14.6 ENE 10 14 1019.2 - 0.2 - - - - - - -
30/08:30pm 14.6 ENE 10 14 1019.2 - 0.2 - - - - - - -
30/08:00pm 14.3 ENE 10 13 1019.1 - 0.2 - - - - - - -
30/07:30pm 14.1 NE 9 12 1019.2 - 0.2 - - - - - - -
30/07:00pm 13.6 NE 9 12 1019.2 - 0.2 - - - - - - -
30/06:30pm 13.5 ENE 7 9 1019.2 - 0.2 - - - - - - -
30/06:00pm 13.1 ENE 7 10 1019.0 - 0.2 - - - - - - -
30/05:30pm 13.1 E 7 8 1018.6 - 0.2 - - - - - - -
30/05:00pm 13.4 ENE 7 10 1018.4 - 0.2 - - - - - - -
30/04:30pm 14.9 ENE 7 9 1018.3 - 0.2 - - - - - - -
30/04:00pm 15.7 ENE 9 13 1018.2 - 0.2 - - - - - - -
30/03:30pm 16.1 ENE 9 11 1018.0 - 0.2 - - - - - - -
30/03:00pm 16.4 ENE 8 11 1017.8 - 0.2 - - - - - - -
30/02:30pm 16.7 ENE 8 11 1017.8 - 0.2 - - - - - - -
30/02:00pm 17.2 NE 9 11 1017.9 - 0.2 - - - - - - -
30/01:30pm 16.9 NE 9 11 1017.9 - 0.2 - - - - - - -
30/01:00pm 16.7 ENE 9 12 1018.1 - 0.2 - - - - - - -
30/12:30pm 16.6 ENE 8 11 1018.5 - 0.0 - - - - - - -
30/12:00pm 15.5 NE 8 11 1018.8 - 0.0 - - - - - - -
30/11:30am 16.2 NE 9 11 1019.2 - 0.0 - - - - - - -
30/11:00am 16.0 ENE 9 12 1019.6 - 0.0 - - - - - - -
30/10:30am 15.7 ENE 10 13 1019.8 - 0.0 - - - - - - -
30/10:00am 15.3 ENE 10 13 1019.8 - 0.0 - - - - - - -
30/09:30am 15.1 ENE 10 12 1019.8 - 0.0 - - - - - - -
30/09:00am 13.9 E 7 9 1019.7 - 0.0 - - - - - - -
30/08:30am 11.8 ESE 9 10 1019.4 - 0.0 - - - - - - -
30/08:00am 10.1 ESE 8 9 1019.5 - 0.0 - - - - - - -
30/07:30am 9.1 ESE 10 11 1019.1 - 0.0 - - - - - - -
30/07:00am 8.9 ESE 9 11 1019.1 - 0.0 - - - - - - -
30/06:30am 8.8 ESE 9 11 1018.6 - 0.0 - - - - - - -
30/06:00am 9.2 SE 10 11 1018.6 - 0.0 - - - - - - -
30/05:30am 9.3 ESE 9 11 1018.4 - 0.0 - - - - - - -
30/05:00am 9.7 ESE 9 11 1018.4 - 0.0 - - - - - - -
30/04:30am 10.5 ESE 9 11 1018.3 - 0.0 - - - - - - -
30/04:00am 12.0 ENE 9 13 1018.3 - 0.0 - - - - - - -
30/03:30am 12.3 ENE 11 14 1018.3 - 0.0 - - - - - - -
30/03:00am 11.7 E 9 14 1018.5 - 0.0 - - - - - - -
30/02:30am 11.9 ENE 10 13 1018.5 - 0.0 - - - - - - -
30/02:00am 11.0 ESE 9 12 1018.6 - 0.0 - - - - - - -
30/01:30am 10.9 ESE 9 11 1018.8 - 0.0 - - - - - - -
30/01:00am 10.9 ESE 8 10 1019.1 - 0.0 - - - - - - -
30/12:30am 11.7 ESE 9 13 1019.2 - 0.0 - - - - - - -
30/12:00am 12.3 SE 8 11 1019.6 - 0.0 - - - - - - -
 
Date/Time
WST
Temp

°C
Wind Pressure Rain
since 9am
mm
Weather Cloud Vis
km
Sea
Height
m
Swell
Dir
 
Speed
knots
Gust
knots
hPa Trend Height
m
Period
s
Dir
29/11:30pm 12.0 ESE 7 9 1019.7 - 0.0 - - - - - - -
29/11:00pm 12.4 E 8 10 1019.9 - 0.0 - - - - - - -
29/10:30pm 11.9 SE 7 10 1019.9 - 0.0 - - - - - - -
29/10:00pm 11.7 ESE 8 10 1020.0 - 0.0 - - - - - - -
29/09:30pm 11.5 SE 8 12 1020.0 - 0.0 - - - - - - -
29/09:00pm 11.7 SE 9 12 1020.1 - 0.0 - - - - - - -
29/08:30pm 11.6 SE 9 11 1020.0 - 0.0 - - - - - - -
29/08:00pm 11.6 SE 8 11 1019.9 - 0.0 - - - - - - -
29/07:30pm 11.6 SE 8 12 1019.8 - 0.0 - - - - - - -
29/07:00pm 11.6 SE 9 11 1019.5 - 0.0 - - - - - - -
29/06:30pm 12.3 SE 9 11 1019.3 - 0.0 - - - - - - -
29/06:00pm 12.7 SE 6 9 1019.0 - 0.0 - - - - - - -
29/05:30pm 13.0 SE 6 7 1018.8 - 0.0 - - - - - - -
29/05:00pm 13.4 ESE 6 7 1018.6 - 0.0 - - - - - - -
29/04:30pm 13.9 ESE 5 7 1018.5 - 0.0 - - - - - - -
29/04:00pm 14.2 ESE 5 6 1018.5 - 0.0 - - - - - - -
29/03:30pm 14.2 ESE 6 8 1018.3 - 0.0 - - - - - - -
29/03:00pm 15.0 ESE 5 7 1018.0 - 0.0 - - - - - - -
29/02:30pm 15.1 E 6 8 1017.9 - 0.0 - - - - - - -
29/02:00pm 16.3 E 7 9 1018.0 - 0.0 - - - - - - -
29/01:30pm 14.8 ESE 7 9 1018.2 - 0.0 - - - - - - -
29/01:00pm 13.8 ESE 5 8 1018.5 - 0.0 - - - - - - -
29/12:30pm 15.2 E 9 11 1018.6 - 0.0 - - - - - - -
29/12:00pm 15.7 E 8 11 1019.0 - 0.0 - - - - - - -
29/11:30am 14.0 E 9 11 1019.5 - 0.0 - - - - - - -
29/11:00am 13.7 E 9 12 1019.7 - 0.0 - - - - - - -
29/10:30am 15.1 ESE 7 11 1019.8 - 0.0 - - - - - - -
29/10:00am 14.5 ESE 8 11 1019.8 - 0.0 - - - - - - -
29/09:30am 13.3 ESE 9 11 1019.6 - 0.0 - - - - - - -
29/09:00am 12.3 SE 8 11 1019.6 - 2.2 - - - - - - -
29/08:30am 11.3 SE 10 13 1019.3 - 2.2 - - - - - - -
29/08:00am 10.1 SE 10 13 1019.0 - 2.2 - - - - - - -
29/07:30am 9.3 SE 10 11 1018.7 - 2.2 - - - - - - -
29/07:00am 9.4 SE 10 11 1018.5 - 2.2 - - - - - - -
29/06:30am 9.7 SE 8 10 1018.3 - 2.2 - - - - - - -
29/06:00am 9.4 SSE 9 10 1018.0 - 2.2 - - - - - - -
29/05:30am 9.2 SE 9 10 1017.6 - 2.2 - - - - - - -
29/05:00am 9.2 SE 8 9 1017.5 - 2.2 - - - - - - -
29/04:30am 9.4 SE 9 10 1017.3 - 2.2 - - - - - - -
29/04:00am 9.4 SE 8 9 1017.0 - 2.2 - - - - - - -
29/03:30am 9.8 SE 7 8 1016.9 - 2.2 - - - - - - -
29/03:00am 10.2 SE 7 8 1016.7 - 2.2 - - - - - - -
29/02:30am 10.8 S 9 11 1016.8 - 2.2 - - - - - - -
29/02:00am 11.0 S 10 13 1016.9 - 2.2 - - - - - - -
29/01:30am 11.1 S 11 14 1016.7 - 2.2 - - - - - - -
29/01:00am 10.7 S 12 15 1016.7 - 2.2 - - - - - - -
29/12:30am 9.9 SSE 9 11 1016.5 - 2.2 - - - - - - -
29/12:00am 10.3 SSE 10 11 1016.5 - 2.2 - - - - - - -
 
Date/Time
WST
Temp

°C
Wind Pressure Rain
since 9am
mm
Weather Cloud Vis
km
Sea
Height
m
Swell
Dir
 
Speed
knots
Gust
knots
hPa Trend Height
m
Period
s
Dir
28/11:30pm 10.8 S 12 16 1016.5 - 2.2 - - - - - - -
28/11:00pm 10.7 SSE 11 15 1016.6 - 2.2 - - - - - - -
28/10:30pm 10.9 SSE 9 12 1016.7 - 2.2 - - - - - - -
28/10:00pm 11.3 S 12 15 1016.8 - 2.2 - - - - - - -
28/09:30pm 11.7 S 11 16 1016.6 - 2.2 - - - - - - -
28/09:00pm 11.8 S 12 16 1016.4 - 2.2 Recent precip. - - - - - -
28/08:30pm 12.4 SW 4 7 1016.2 - 1.8 - - - - - - -
28/08:00pm 13.2 SSW 12 18 1016.0 - 0.4 - - - - - - -
28/07:30pm 13.8 SSW 14 22 1015.6 - 0.4 - - - - - - -
28/07:00pm 13.8 SSW 11 14 1015.4 - 0.4 - - - - - - -
28/06:30pm 14.4 SW 14 19 1015.0 - 0.4 - - - - - - -
28/06:00pm 14.2 SW 15 18 1014.8 - 0.4 - - - - - - -
28/05:30pm 14.6 SW 13 20 1014.6 - 0.4 - - - - - - -
28/05:00pm 14.6 SW 13 18 1014.3 - 0.4 - - - - - - -
28/04:30pm 14.9 SW 13 17 1014.1 - 0.4 - - - - - - -
28/04:00pm 14.9 SSW 14 19 1013.8 - 0.4 - - - - - - -
28/03:30pm 15.0 SSW 11 16 1013.7 - 0.4 - - - - - - -
28/03:00pm 14.0 SW 17 25 1013.6 - 0.4 Rain - - - - - -
28/02:51pm 16.0 SW 15 28 1013.2 - 0.0 - - - - - - -
28/02:30pm 17.3 SW 15 21 1013.2 - 0.0 - - - - - - -
28/02:00pm 18.2 SW 16 22 1013.0 - 0.0 - - - - - - -
28/01:30pm 17.7 SW 16 22 1012.7 - 0.0 - - - - - - -
28/01:00pm 16.7 SW 15 22 1012.6 - 0.0 - - - - - - -
28/12:30pm 18.8 SW 15 22 1012.8 - 0.0 - - - - - - -
28/12:00pm 17.6 SW 17 23 1013.0 - 0.0 - - - - - - -
28/11:30am 17.8 SW 17 24 1013.2 - 0.0 - - - - - - -
28/11:00am 17.3 SW 18 24 1013.5 - 0.0 - - - - - - -
28/10:30am 17.3 SW 17 21 1013.4 - 0.0 - - - - - - -
28/10:00am 17.2 SW 18 23 1013.3 - 0.0 - - - - - - -
28/09:30am 16.3 SW 18 24 1013.3 - 0.0 - - - - - - -
28/09:00am 15.5 SW 18 24 1013.1 - 10.2 Recent precip. - - - - - -
28/08:30am 14.6 WSW 19 25 1012.9 - 10.2 - - - - - - -
28/08:00am 15.0 WSW 18 29 1012.6 - 10.0 - - - - - - -
28/07:59am 15.5 WSW 18 29 1012.6 - 9.8 - - - - - - -
28/07:30am 15.1 WSW 20 25 1012.3 - 9.8 - - - - - - -
28/07:00am 15.1 WSW 21 29 1011.8 - 9.8 - - - - - - -
28/06:30am 15.1 WSW 21 29 1011.6 - 9.8 - - - - - - -
28/06:00am 14.4 WSW 22 29 1011.8 - 9.8 - - - - - - -
28/05:45am 15.1 WSW 21 31 1011.4 - 9.8 - - - - - - -
28/05:30am 15.1 WSW 21 26 1011.2 - 9.8 - - - - - - -
28/05:00am 14.9 W 23 32 1011.0 - 9.8 - - - - - - -
28/04:49am 14.5 W 19 29 1011.0 - 9.8 - - - - - - -
28/04:30am 15.5 WSW 20 24 1010.9 - 9.8 - - - - - - -
28/04:00am 15.4 WSW 22 30 1010.9 - 9.8 - - - - - - -
28/03:30am 15.2 WSW 23 29 1010.9 - 9.8 - - - - - - -
28/03:00am 14.8 WSW 24 31 1010.9 - 9.6 - - - - - - -
28/02:30am 14.5 WSW 22 28 1010.9 - 9.6 - - - - - - -
28/02:00am 14.7 W 25 32 1010.8 - 9.6 - - - - - - -
28/01:30am 14.6 W 24 30 1010.5 - 9.4 - - - - - - -
28/01:24am 14.6 W 25 30 1010.5 - 9.4 - - - - - - -
28/01:00am 14.0 WNW 20 27 1011.0 - 9.4 - - - - - - -
28/12:30am 14.4 NW 26 37 1011.5 - 8.8 - - - - - - -
28/12:23am 14.9 NW 31 41 1011.6 - 8.6 - - - - - - -

Other Formats:

Comma delimited format used in spreadsheet applications
http://www.bom.gov.au/fwo/IDW60701/IDW60701.94600.axf

JavaScript Object Notation format (JSON) in row-major order
http://www.bom.gov.au/fwo/IDW60701/IDW60701.94600.json